createdAt,value
2023-03-17T00:00:32.859Z,-2.44
2023-03-17T00:02:35.200Z,-2.48
2023-03-17T00:04:38.248Z,-2.62
2023-03-17T00:06:41.852Z,-2.38
2023-03-17T00:08:46.811Z,-2.43
2023-03-17T00:10:50.200Z,-2.33
2023-03-17T00:12:55.517Z,-2.53
2023-03-17T00:14:58.044Z,-2.68
2023-03-17T00:17:00.833Z,-2.70
2023-03-17T00:19:05.476Z,-2.51
2023-03-17T00:21:13.291Z,-2.74
2023-03-17T00:23:22.966Z,-2.39
2023-03-17T00:25:30.423Z,-2.45
2023-03-17T00:27:33.318Z,-2.74
2023-03-17T00:29:35.675Z,-2.28
2023-03-17T00:31:39.971Z,-2.46
2023-03-17T00:33:45.643Z,-2.38
2023-03-17T00:35:48.453Z,-2.58
2023-03-17T00:37:53.006Z,-2.56
2023-03-17T00:39:56.466Z,-2.48
2023-03-17T00:42:01.141Z,-2.79
2023-03-17T00:44:03.801Z,-2.77
2023-03-17T00:46:36.157Z,-2.02
2023-03-17T00:48:39.175Z,-2.09
2023-03-17T00:50:43.004Z,-2.80
2023-03-17T00:52:46.880Z,-2.68
2023-03-17T00:54:49.174Z,-2.95
2023-03-17T00:56:52.838Z,-3.12
2023-03-17T00:58:55.068Z,-2.59
2023-03-17T01:00:57.967Z,-2.72
2023-03-17T01:03:00.608Z,-2.40
2023-03-17T01:05:06.648Z,-2.72
2023-03-17T01:07:12.339Z,-2.40
2023-03-17T01:09:16.500Z,-3.06
2023-03-17T01:11:20.597Z,-3.18
2023-03-17T01:13:24.072Z,-2.81
2023-03-17T01:15:32.115Z,-2.63
2023-03-17T01:17:34.250Z,-2.53
2023-03-17T01:19:37.782Z,-2.93
2023-03-17T01:21:41.089Z,-2.59
2023-03-17T01:23:43.997Z,-2.78
2023-03-17T01:25:46.593Z,-2.56
2023-03-17T01:27:49.636Z,-2.79
2023-03-17T01:29:55.560Z,-3.09
2023-03-17T01:31:58.300Z,-3.21
2023-03-17T01:34:01.416Z,-3.35
2023-03-17T01:36:04.538Z,-2.91
2023-03-17T01:38:07.329Z,-2.84
2023-03-17T01:40:15.415Z,-3.00
2023-03-17T01:42:17.890Z,-3.23
2023-03-17T01:44:20.244Z,-3.72
2023-03-17T01:46:32.787Z,-2.87
2023-03-17T01:48:39.503Z,-3.18
2023-03-17T01:50:42.874Z,-3.26
2023-03-17T01:52:46.023Z,-3.05
2023-03-17T01:55:03.795Z,-2.97
2023-03-17T01:57:15.197Z,-2.70
2023-03-17T01:59:24.089Z,-2.92
2023-03-17T02:01:32.323Z,-2.93
2023-03-17T02:03:34.982Z,-3.16
2023-03-17T02:05:39.274Z,-3.39
2023-03-17T02:07:42.353Z,-2.85
2023-03-17T02:09:44.977Z,-2.88
2023-03-17T02:11:47.201Z,-2.91
2023-03-17T02:13:49.799Z,-2.91
2023-03-17T02:15:53.648Z,-2.76
2023-03-17T02:18:00.387Z,-2.88
2023-03-17T02:20:18.661Z,-2.47
2023-03-17T02:22:24.612Z,-2.86
2023-03-17T02:24:26.794Z,-2.38
2023-03-17T02:26:33.682Z,-2.73
2023-03-17T02:28:36.448Z,-3.08
2023-03-17T02:30:39.036Z,-2.68
2023-03-17T02:32:41.448Z,-2.55
2023-03-17T02:34:45.490Z,-2.66
2023-03-17T02:36:48.180Z,-2.51
2023-03-17T02:38:52.128Z,-2.66
2023-03-17T02:40:54.909Z,-2.82
2023-03-17T02:42:57.876Z,-2.42
2023-03-17T02:45:03.587Z,-2.47
2023-03-17T02:47:07.614Z,-2.54
2023-03-17T02:49:12.207Z,-3.04
2023-03-17T02:51:14.647Z,-3.08
2023-03-17T02:53:17.123Z,-2.98
2023-03-17T02:55:19.983Z,-2.82
2023-03-17T02:57:22.774Z,-2.98
2023-03-17T02:59:25.382Z,-2.85
2023-03-17T03:01:27.886Z,-2.72
2023-03-17T03:03:30.938Z,-2.75
2023-03-17T03:05:33.764Z,-2.80
2023-03-17T03:07:36.714Z,-2.85
2023-03-17T03:09:39.232Z,-2.88
2023-03-17T03:11:42.897Z,-2.70
2023-03-17T03:13:45.711Z,-2.77
2023-03-17T03:15:48.336Z,-2.68
2023-03-17T03:17:51.443Z,-2.55
2023-03-17T03:19:54.136Z,-2.82
2023-03-17T03:21:56.438Z,-2.53
2023-03-17T03:23:58.616Z,-2.92
2023-03-17T03:26:01.335Z,-3.05
2023-03-17T03:28:05.359Z,-2.69
2023-03-17T03:30:08.833Z,-3.40
2023-03-17T03:32:11.543Z,-2.58
2023-03-17T03:34:14.003Z,-3.04
2023-03-17T03:36:16.484Z,-2.61
2023-03-17T03:38:19.600Z,-3.01
2023-03-17T03:40:22.268Z,-2.97
2023-03-17T03:42:24.588Z,-3.04
2023-03-17T03:44:26.873Z,-2.79
2023-03-17T03:46:29.907Z,-2.77
2023-03-17T03:48:32.899Z,-2.57
2023-03-17T03:50:35.680Z,-2.95
2023-03-17T03:52:38.050Z,-2.81
2023-03-17T03:54:40.394Z,-2.73
2023-03-17T03:56:42.988Z,-2.35
2023-03-17T03:58:45.500Z,-2.72
2023-03-17T04:00:49.090Z,-2.79
2023-03-17T04:02:51.381Z,-2.35
2023-03-17T04:04:54.746Z,-2.67
2023-03-17T04:06:57.408Z,-2.58
2023-03-17T04:08:59.638Z,-2.66
2023-03-17T04:11:02.190Z,-2.70
2023-03-17T04:13:04.471Z,-2.53
2023-03-17T04:15:09.493Z,-2.28
2023-03-17T04:17:13.360Z,-2.47
2023-03-17T04:19:15.746Z,-2.73
2023-03-17T04:21:19.219Z,-2.62
2023-03-17T04:23:21.403Z,-3.00
2023-03-17T04:25:23.697Z,-2.86
2023-03-17T04:27:26.085Z,-2.86
2023-03-17T04:29:28.521Z,-2.77
2023-03-17T04:31:31.010Z,-3.05
2023-03-17T04:33:33.368Z,-2.88
2023-03-17T04:35:36.025Z,-2.50
2023-03-17T04:37:39.425Z,-2.90
2023-03-17T04:39:42.303Z,-2.95
2023-03-17T04:41:45.515Z,-2.78
2023-03-17T04:43:48.163Z,-2.96
2023-03-17T04:45:50.935Z,-2.63
2023-03-17T04:47:53.209Z,-2.81
2023-03-17T04:49:56.056Z,-2.94
2023-03-17T04:51:58.650Z,-3.24
2023-03-17T04:54:01.804Z,-2.72
2023-03-17T04:56:04.587Z,-2.63
2023-03-17T04:58:07.315Z,-3.10
2023-03-17T05:00:10.369Z,-3.28
2023-03-17T05:02:13.080Z,-2.85
2023-03-17T05:04:28.852Z,-2.74
2023-03-17T05:06:33.693Z,-3.32
2023-03-17T05:08:36.084Z,-2.78
2023-03-17T05:10:38.208Z,-2.86
2023-03-17T05:12:41.204Z,-2.63
2023-03-17T05:14:43.518Z,-2.92
2023-03-17T05:16:48.250Z,-3.25
2023-03-17T05:18:51.216Z,-2.77
2023-03-17T05:20:54.390Z,-2.75
2023-03-17T05:22:56.930Z,-2.17
2023-03-17T05:24:59.156Z,-2.39
2023-03-17T05:27:01.465Z,-2.50
2023-03-17T05:29:04.278Z,-2.31
2023-03-17T05:31:09.475Z,-2.38
2023-03-17T05:33:13.062Z,-1.97
2023-03-17T05:35:16.135Z,-2.26
2023-03-17T05:37:18.507Z,-1.96
2023-03-17T05:39:21.682Z,-1.97
2023-03-17T05:41:24.085Z,-1.70
2023-03-17T05:43:26.642Z,-2.15
2023-03-17T05:45:29.928Z,-1.59
2023-03-17T05:47:33.811Z,-1.44
2023-03-17T05:49:36.553Z,-1.63
2023-03-17T05:51:39.019Z,-1.07
2023-03-17T05:53:42.057Z,-1.17
2023-03-17T05:55:44.701Z,-1.21
2023-03-17T05:57:47.396Z,-1.13
2023-03-17T05:59:51.057Z,-0.72
2023-03-17T06:01:53.851Z,-1.02
2023-03-17T06:03:56.420Z,-1.22
2023-03-17T06:05:59.181Z,-1.18
2023-03-17T06:08:02.418Z,-0.65
2023-03-17T06:10:06.903Z,-0.99
2023-03-17T06:12:09.673Z,-0.80
2023-03-17T06:14:12.911Z,-0.37
2023-03-17T06:16:15.394Z,-0.42
2023-03-17T06:18:19.951Z,-0.51
2023-03-17T06:20:22.400Z,-0.24
2023-03-17T06:22:25.030Z,-0.44
2023-03-17T06:24:27.377Z,0.03
2023-03-17T06:26:30.232Z,0.26
2023-03-17T06:28:32.744Z,0.11
2023-03-17T06:30:38.745Z,0.21
2023-03-17T06:32:42.410Z,0.79
2023-03-17T06:34:44.925Z,0.48
2023-03-17T06:36:48.631Z,0.78
2023-03-17T06:38:52.627Z,0.68
2023-03-17T06:40:55.162Z,0.85
2023-03-17T06:42:57.386Z,1.12
2023-03-17T06:44:59.803Z,1.00
2023-03-17T06:47:03.182Z,1.21
2023-03-17T06:49:05.796Z,1.27
2023-03-17T06:51:08.310Z,1.56
2023-03-17T06:53:12.042Z,1.29
2023-03-17T06:55:15.692Z,1.36
2023-03-17T06:57:18.079Z,1.69
2023-03-17T06:59:23.357Z,1.72
2023-03-17T07:01:29.280Z,2.17
2023-03-17T07:03:34.093Z,2.24
2023-03-17T07:05:36.319Z,2.27
2023-03-17T07:07:39.794Z,2.58
2023-03-17T07:09:42.915Z,2.75
2023-03-17T07:11:45.577Z,2.98
2023-03-17T07:13:47.893Z,2.62
2023-03-17T07:15:51.096Z,2.70
2023-03-17T07:17:54.836Z,2.75
2023-03-17T07:19:57.467Z,2.59
2023-03-17T07:22:00.274Z,2.84
2023-03-17T07:24:02.854Z,3.55
2023-03-17T07:26:05.670Z,3.35
2023-03-17T07:28:08.893Z,3.54
2023-03-17T07:30:13.396Z,3.66
2023-03-17T07:32:16.180Z,3.77
2023-03-17T07:34:18.722Z,3.72
2023-03-17T07:36:21.211Z,4.03
2023-03-17T07:38:23.739Z,4.22
2023-03-17T07:40:27.162Z,4.37
2023-03-17T07:42:30.300Z,4.70
2023-03-17T07:44:33.477Z,4.67
2023-03-17T07:46:36.270Z,4.87
2023-03-17T07:48:42.731Z,4.93
2023-03-17T07:50:45.793Z,4.70
2023-03-17T07:52:48.152Z,4.92
2023-03-17T07:54:52.461Z,4.95
2023-03-17T07:56:55.703Z,5.21
2023-03-17T07:58:59.380Z,5.45
2023-03-17T08:01:01.870Z,5.49
2023-03-17T08:03:10.413Z,5.23
2023-03-17T08:05:14.567Z,5.81
2023-03-17T08:07:16.906Z,5.93
2023-03-17T08:09:19.866Z,5.73
2023-03-17T08:11:23.608Z,5.87
2023-03-17T08:13:26.655Z,6.51
2023-03-17T08:15:31.071Z,6.31
2023-03-17T08:17:34.968Z,6.77
2023-03-17T08:19:37.562Z,7.11
2023-03-17T08:21:40.719Z,6.68
2023-03-17T08:23:43.419Z,7.07
2023-03-17T08:25:47.171Z,7.04
2023-03-17T08:27:49.741Z,7.18
2023-03-17T08:29:52.224Z,7.15
2023-03-17T08:31:54.770Z,7.19
2023-03-17T08:33:58.208Z,6.89
2023-03-17T08:36:00.767Z,7.47
2023-03-17T08:38:04.765Z,7.40
2023-03-17T08:40:10.430Z,7.40
2023-03-17T08:42:12.979Z,7.09
2023-03-17T08:44:15.982Z,7.43
2023-03-17T08:46:27.633Z,7.38
2023-03-17T08:48:30.762Z,7.44
2023-03-17T08:50:33.879Z,7.40
2023-03-17T08:52:37.263Z,7.56
2023-03-17T08:54:39.703Z,7.81
2023-03-17T08:56:42.750Z,7.79
2023-03-17T08:58:45.541Z,7.76
2023-03-17T09:00:48.798Z,7.88
2023-03-17T09:02:51.566Z,8.27
2023-03-17T09:04:54.874Z,7.97
2023-03-17T09:07:05.781Z,8.13
2023-03-17T09:09:10.070Z,8.20
2023-03-17T09:11:16.897Z,8.05
2023-03-17T09:13:20.142Z,8.02
2023-03-17T09:15:22.955Z,8.02
2023-03-17T09:17:25.624Z,8.11
2023-03-17T09:19:28.287Z,8.33
2023-03-17T09:21:31.168Z,8.28
2023-03-17T09:23:34.156Z,8.44
2023-03-17T09:25:38.619Z,8.96
2023-03-17T09:27:41.004Z,8.54
2023-03-17T09:29:43.752Z,8.96
2023-03-17T09:31:47.894Z,8.95
2023-03-17T09:33:50.325Z,9.02
2023-03-17T09:35:53.158Z,8.97
2023-03-17T09:37:56.041Z,9.18
2023-03-17T09:39:58.835Z,9.34
2023-03-17T09:42:19.811Z,9.61
2023-03-17T09:44:34.077Z,9.96
2023-03-17T09:47:05.076Z,9.86
2023-03-17T09:49:42.691Z,9.95
2023-03-17T09:51:47.024Z,9.84
2023-03-17T09:54:05.101Z,9.71
2023-03-17T09:56:16.432Z,9.80
2023-03-17T09:58:26.381Z,9.94
2023-03-17T10:00:30.179Z,9.83
2023-03-17T10:02:36.000Z,9.56
2023-03-17T10:04:38.832Z,9.48
2023-03-17T10:06:47.149Z,9.90
2023-03-17T10:08:59.670Z,9.71
2023-03-17T10:11:18.353Z,9.89
2023-03-17T10:13:35.982Z,9.93
2023-03-17T10:15:51.258Z,9.62
2023-03-17T10:17:54.061Z,9.53
2023-03-17T10:20:22.152Z,9.61
2023-03-17T10:22:43.569Z,10.13
2023-03-17T10:24:51.093Z,9.75
2023-03-17T10:26:58.206Z,10.07
2023-03-17T10:29:04.708Z,10.25
2023-03-17T10:31:19.346Z,10.12
2023-03-17T10:33:22.862Z,9.94
2023-03-17T10:35:26.139Z,10.16
2023-03-17T10:37:30.035Z,10.21
2023-03-17T10:39:42.353Z,10.44
2023-03-17T10:42:09.847Z,10.28
2023-03-17T10:44:28.353Z,10.20
2023-03-17T10:46:31.649Z,10.11
2023-03-17T10:48:38.956Z,9.75
2023-03-17T10:50:41.607Z,10.25
2023-03-17T10:52:47.753Z,10.10
2023-03-17T10:54:53.804Z,10.03
2023-03-17T10:57:06.692Z,10.48
2023-03-17T10:59:26.462Z,10.49
2023-03-17T11:01:30.837Z,10.42
2023-03-17T11:03:38.185Z,10.37
2023-03-17T11:05:40.711Z,10.53
2023-03-17T11:07:43.473Z,10.35
2023-03-17T11:09:51.140Z,10.54
2023-03-17T11:12:19.427Z,10.42
2023-03-17T11:14:28.637Z,10.69
2023-03-17T11:16:35.695Z,10.54
2023-03-17T11:18:40.777Z,10.79
2023-03-17T11:20:54.582Z,10.61
2023-03-17T11:23:02.605Z,11.13
2023-03-17T11:25:16.457Z,10.87
2023-03-17T11:27:28.218Z,11.49
2023-03-17T11:29:48.476Z,11.52
2023-03-17T11:32:25.553Z,11.26
2023-03-17T11:34:57.137Z,11.71
2023-03-17T11:37:26.636Z,11.81
2023-03-17T11:39:45.028Z,11.60
2023-03-17T11:42:15.783Z,11.69
2023-03-17T11:44:37.326Z,11.94
2023-03-17T11:46:50.814Z,12.03
2023-03-17T11:49:11.465Z,11.84
2023-03-17T11:51:36.502Z,12.32
2023-03-17T11:53:53.955Z,12.34
2023-03-17T11:56:15.666Z,12.39
2023-03-17T11:58:41.599Z,12.61
2023-03-17T12:00:53.466Z,12.08
2023-03-17T12:03:10.493Z,12.10
2023-03-17T12:05:27.698Z,12.16
2023-03-17T12:07:35.975Z,12.49
2023-03-17T12:09:51.331Z,12.25
2023-03-17T12:11:56.148Z,12.04
2023-03-17T12:14:23.137Z,11.84
2023-03-17T12:16:30.090Z,12.50
2023-03-17T12:18:46.658Z,12.63
2023-03-17T12:20:59.129Z,12.67
2023-03-17T12:23:13.643Z,12.70
2023-03-17T12:25:26.391Z,12.47
2023-03-17T12:27:48.973Z,12.39
2023-03-17T12:30:00.897Z,12.38
2023-03-17T12:32:16.552Z,12.07
2023-03-17T12:34:20.633Z,12.44
2023-03-17T12:36:24.330Z,12.20
2023-03-17T12:38:37.140Z,12.08
2023-03-17T12:40:48.701Z,12.56
2023-03-17T12:42:54.858Z,12.57
2023-03-17T12:45:06.117Z,12.67
2023-03-17T12:47:33.016Z,12.76
2023-03-17T12:49:54.177Z,12.56
2023-03-17T12:52:13.851Z,12.61
2023-03-17T12:54:26.888Z,12.32
2023-03-17T12:56:31.479Z,12.47
2023-03-17T12:58:47.327Z,12.47
2023-03-17T13:01:02.456Z,12.91
2023-03-17T13:03:28.137Z,12.72
2023-03-17T13:05:33.580Z,12.57
2023-03-17T13:07:51.688Z,12.65
2023-03-17T13:09:54.154Z,12.64
2023-03-17T13:11:57.548Z,12.60
2023-03-17T13:14:29.758Z,12.83
2023-03-17T13:16:34.009Z,13.01
2023-03-17T13:18:37.446Z,13.06
2023-03-17T13:20:52.399Z,12.90
2023-03-17T13:23:02.477Z,13.09
2023-03-17T13:25:31.004Z,12.96
2023-03-17T13:27:33.472Z,12.98
2023-03-17T13:29:36.321Z,12.90
2023-03-17T13:31:39.089Z,12.67
2023-03-17T13:33:54.236Z,12.83
2023-03-17T13:36:32.855Z,12.58
2023-03-17T13:38:35.136Z,12.80
2023-03-17T13:40:57.810Z,12.70
2023-03-17T13:43:24.763Z,12.55
2023-03-17T13:45:40.412Z,12.63
2023-03-17T13:47:44.685Z,12.58
2023-03-17T13:49:51.373Z,12.42
2023-03-17T13:52:04.707Z,12.06
2023-03-17T13:54:20.141Z,12.67
2023-03-17T13:56:25.524Z,12.84
2023-03-17T13:58:33.526Z,12.98
2023-03-17T14:00:39.283Z,13.23
2023-03-17T14:02:45.050Z,12.92
2023-03-17T14:05:00.764Z,13.23
2023-03-17T14:07:14.269Z,12.86
2023-03-17T14:09:42.743Z,12.90
2023-03-17T14:11:48.300Z,12.76
2023-03-17T14:14:15.178Z,12.67
2023-03-17T14:16:30.373Z,12.76
2023-03-17T14:18:36.821Z,12.61
2023-03-17T14:20:39.364Z,12.70
2023-03-17T14:22:45.583Z,12.72
2023-03-17T14:24:53.392Z,12.56
2023-03-17T14:26:55.990Z,12.20
2023-03-17T14:29:04.982Z,12.54
2023-03-17T14:31:08.330Z,12.48
2023-03-17T14:33:25.348Z,12.54
2023-03-17T14:35:36.373Z,12.41
2023-03-17T14:37:38.658Z,12.28
2023-03-17T14:39:50.552Z,12.37
2023-03-17T14:42:05.108Z,12.25
2023-03-17T14:44:10.208Z,12.03
2023-03-17T14:46:28.380Z,12.40
2023-03-17T14:48:33.889Z,12.67
2023-03-17T14:50:36.434Z,12.08
2023-03-17T14:52:41.495Z,12.52
2023-03-17T14:54:44.596Z,12.01
2023-03-17T14:56:58.147Z,12.39
2023-03-17T14:59:37.710Z,12.11
2023-03-17T15:01:50.170Z,12.07
2023-03-17T15:03:59.999Z,12.12
2023-03-17T15:06:30.418Z,12.26
2023-03-17T15:08:46.463Z,11.91
2023-03-17T15:10:49.488Z,12.02
2023-03-17T15:13:12.248Z,12.13
2023-03-17T15:15:29.353Z,11.76
2023-03-17T15:17:35.964Z,11.81
2023-03-17T15:23:57.125Z,12.03
2023-03-17T15:30:19.084Z,11.33
2023-03-17T15:36:40.205Z,11.61
2023-03-17T15:43:01.061Z,11.34
2023-03-17T15:49:26.468Z,11.17
2023-03-17T15:55:48.743Z,11.12
2023-03-17T16:02:28.873Z,11.01
2023-03-17T16:13:11.816Z,10.45
2023-03-17T16:19:34.099Z,10.27
2023-03-17T16:21:37.781Z,10.23
2023-03-17T16:23:41.230Z,10.48
2023-03-17T16:25:44.342Z,10.25
2023-03-17T16:27:48.783Z,10.39
2023-03-17T16:29:51.550Z,10.43
2023-03-17T16:31:53.917Z,10.13
2023-03-17T16:33:57.105Z,10.02
2023-03-17T16:36:01.230Z,10.15
2023-03-17T16:38:03.789Z,9.64
2023-03-17T16:40:36.674Z,9.46
2023-03-17T16:42:41.960Z,9.33
2023-03-17T16:44:44.326Z,9.63
2023-03-17T16:46:47.678Z,9.61
2023-03-17T16:48:51.186Z,9.55
2023-03-17T16:50:54.066Z,9.31
2023-03-17T16:52:57.186Z,9.29
2023-03-17T16:54:59.941Z,9.20
2023-03-17T16:57:03.058Z,9.33
2023-03-17T16:59:07.958Z,8.68
2023-03-17T17:01:15.408Z,8.94
2023-03-17T17:03:18.744Z,8.78
2023-03-17T17:05:27.658Z,8.58
2023-03-17T17:07:30.091Z,8.45
2023-03-17T17:09:32.789Z,8.58
2023-03-17T17:11:35.541Z,8.38
2023-03-17T17:13:39.480Z,8.42
2023-03-17T17:15:43.118Z,8.30
2023-03-17T17:17:52.296Z,7.89
2023-03-17T17:19:54.850Z,8.16
2023-03-17T17:43:26.630Z,6.81
2023-03-17T17:45:54.659Z,7.13
2023-03-17T18:21:19.146Z,5.53
2023-03-17T18:23:28.734Z,5.61
2023-03-17T18:58:31.064Z,5.10
2023-03-17T19:00:44.228Z,5.20
2023-03-17T19:02:47.320Z,5.55
2023-03-17T19:04:50.602Z,5.07
2023-03-17T19:28:48.155Z,5.31
2023-03-17T19:30:59.803Z,5.14
2023-03-17T19:33:02.406Z,5.20
2023-03-17T19:35:56.407Z,5.77
2023-03-17T19:38:08.680Z,5.54
2023-03-17T19:50:15.090Z,5.81
2023-03-17T19:52:17.668Z,5.45
2023-03-17T19:54:23.666Z,5.28
2023-03-17T19:56:28.331Z,5.70
2023-03-17T19:58:30.917Z,5.75
2023-03-17T20:00:34.381Z,5.86
2023-03-17T20:02:36.810Z,5.77
2023-03-17T20:04:40.051Z,5.95
2023-03-17T20:06:42.378Z,5.88
2023-03-17T20:08:45.301Z,5.94
2023-03-17T20:10:52.314Z,5.64
2023-03-17T20:12:54.771Z,5.70
2023-03-17T20:14:57.371Z,5.85
2023-03-17T20:16:59.810Z,5.84
2023-03-17T20:19:04.085Z,5.87
2023-03-17T20:21:11.436Z,5.91
2023-03-17T20:23:15.179Z,5.93
2023-03-17T20:25:17.612Z,6.16
2023-03-17T20:27:20.404Z,5.90
2023-03-17T20:29:23.294Z,6.32
2023-03-17T20:31:26.109Z,6.26
2023-03-17T20:33:29.317Z,6.08
2023-03-17T20:35:33.020Z,6.21
2023-03-17T20:37:36.228Z,6.08
2023-03-17T20:39:38.919Z,5.93
2023-03-17T20:41:42.329Z,6.18
2023-03-17T20:43:47.293Z,6.01
2023-03-17T20:45:51.360Z,6.38
2023-03-17T20:47:54.898Z,6.39
2023-03-17T20:49:59.213Z,6.34
2023-03-17T20:52:02.354Z,6.11
2023-03-17T20:54:05.917Z,6.06
2023-03-17T20:56:10.028Z,6.04
2023-03-17T20:58:13.492Z,6.28
2023-03-17T21:00:20.432Z,6.19
2023-03-17T21:02:23.837Z,6.03
2023-03-17T21:04:26.693Z,6.21
2023-03-17T21:06:29.615Z,6.13
2023-03-17T21:08:32.471Z,6.09
2023-03-17T21:10:36.187Z,5.78
2023-03-17T21:12:38.849Z,5.91
2023-03-17T21:14:41.617Z,5.95
2023-03-17T21:16:45.694Z,6.04
2023-03-17T21:18:48.745Z,6.24
2023-03-17T21:20:51.157Z,5.95
2023-03-17T21:22:53.505Z,6.18
2023-03-17T21:24:55.837Z,6.11
2023-03-17T21:27:03.617Z,6.18
2023-03-17T21:29:06.148Z,5.65
2023-03-17T21:31:09.938Z,5.74
2023-03-17T21:33:12.246Z,6.00
2023-03-17T21:35:14.860Z,5.87
2023-03-17T21:37:17.620Z,5.73
2023-03-17T21:39:21.665Z,5.59
2023-03-17T21:41:36.149Z,5.75
2023-03-17T21:43:38.666Z,5.58
2023-03-17T21:45:42.347Z,6.09
2023-03-17T21:47:45.017Z,5.92
2023-03-17T21:49:47.596Z,5.76
2023-03-17T21:51:49.840Z,5.72
2023-03-17T21:53:53.296Z,5.76
2023-03-17T21:55:55.757Z,5.76
2023-03-17T21:57:59.285Z,5.80
2023-03-17T22:00:02.402Z,6.05
2023-03-17T22:02:17.020Z,6.04
2023-03-17T22:04:19.421Z,5.59
2023-03-17T22:06:22.827Z,5.77
2023-03-17T22:08:26.853Z,5.98
2023-03-17T22:10:29.575Z,5.76
2023-03-17T22:12:31.878Z,5.73
2023-03-17T22:14:35.864Z,5.74
2023-03-17T22:16:38.163Z,5.65
2023-03-17T22:18:40.871Z,5.87
2023-03-17T22:20:45.128Z,5.40
2023-03-17T22:22:47.327Z,5.78
2023-03-17T22:24:49.897Z,5.66
2023-03-17T22:26:52.752Z,5.75
2023-03-17T22:28:55.702Z,5.63
2023-03-17T22:30:58.128Z,5.57
2023-03-17T22:33:01.320Z,5.59
2023-03-17T22:35:04.498Z,5.26
2023-03-17T22:37:08.112Z,5.27
2023-03-17T22:39:11.170Z,5.53
2023-03-17T22:41:17.693Z,5.43
2023-03-17T22:43:20.367Z,5.15
2023-03-17T22:45:23.170Z,5.04
2023-03-17T22:47:25.810Z,5.00
2023-03-17T22:49:28.623Z,4.78
2023-03-17T22:51:30.875Z,4.67
2023-03-17T22:53:35.553Z,4.60
2023-03-17T22:55:38.177Z,4.78
2023-03-17T22:57:41.090Z,4.59
2023-03-17T22:59:43.432Z,4.64
2023-03-17T23:01:46.224Z,4.40
2023-03-17T23:03:48.697Z,4.62
2023-03-17T23:05:53.633Z,4.47
2023-03-17T23:07:56.186Z,4.59
2023-03-17T23:09:59.119Z,4.30
2023-03-17T23:12:01.857Z,3.74
2023-03-17T23:14:04.927Z,3.90
2023-03-17T23:16:09.386Z,4.14
2023-03-17T23:18:11.746Z,3.92
2023-03-17T23:20:15.571Z,3.69
2023-03-17T23:22:17.950Z,3.83
2023-03-17T23:24:20.646Z,3.58
2023-03-17T23:26:23.207Z,3.34
2023-03-17T23:28:25.883Z,3.53
2023-03-17T23:30:28.184Z,3.50
2023-03-17T23:32:30.689Z,3.51
2023-03-17T23:34:33.198Z,3.32
2023-03-17T23:36:40.340Z,3.24
2023-03-17T23:38:44.510Z,3.41
2023-03-17T23:40:48.228Z,3.23
2023-03-17T23:42:51.137Z,3.07
2023-03-17T23:44:53.597Z,3.24
2023-03-17T23:46:57.379Z,2.77
2023-03-17T23:49:00.427Z,2.58
2023-03-17T23:51:03.360Z,2.64
2023-03-17T23:53:06.281Z,2.55
2023-03-17T23:55:10.300Z,2.64
2023-03-17T23:57:13.635Z,2.64
2023-03-17T23:59:16.637Z,2.58
